createdAt,value
2019-03-19T00:00:11.164Z,72.20
2019-03-19T00:02:40.224Z,72.20
2019-03-19T00:05:08.816Z,72.20
2019-03-19T00:07:37.284Z,72.20
2019-03-19T00:10:08.251Z,72.20
2019-03-19T00:12:36.693Z,72.30
2019-03-19T00:15:09.969Z,72.30
2019-03-19T00:17:38.556Z,72.20
2019-03-19T00:20:10.093Z,72.30
2019-03-19T00:22:39.229Z,72.30
2019-03-19T00:25:07.755Z,72.30
2019-03-19T00:27:36.498Z,72.30
2019-03-19T00:30:10.521Z,72.40
2019-03-19T00:32:38.957Z,72.20
2019-03-19T00:35:08.107Z,72.20
2019-03-19T00:37:36.639Z,72.30
2019-03-19T00:40:10.627Z,72.10
2019-03-19T00:42:39.155Z,72.00
2019-03-19T00:45:11.971Z,72.20
2019-03-19T00:47:40.682Z,72.10
2019-03-19T00:50:13.447Z,72.50
2019-03-19T00:52:41.964Z,72.60
2019-03-19T00:55:11.181Z,72.50
2019-03-19T00:57:39.584Z,72.50
2019-03-19T01:00:15.661Z,72.80
2019-03-19T01:02:44.046Z,72.80
2019-03-19T01:05:13.071Z,72.80
2019-03-19T01:07:41.849Z,72.80
2019-03-19T01:10:17.659Z,72.90
2019-03-19T01:12:46.573Z,72.80
2019-03-19T01:15:15.385Z,72.70
2019-03-19T01:17:44.067Z,72.70
2019-03-19T01:20:14.792Z,72.90
2019-03-19T01:22:43.194Z,73.10
2019-03-19T01:25:12.094Z,73.20
2019-03-19T01:27:40.557Z,72.90
2019-03-19T01:30:11.760Z,73.00
2019-03-19T01:32:40.160Z,72.90
2019-03-19T01:35:08.729Z,72.70
2019-03-19T01:37:37.165Z,72.80
2019-03-19T01:40:10.822Z,72.60
2019-03-19T01:42:39.595Z,72.70
2019-03-19T01:45:14.411Z,72.90
2019-03-19T01:47:42.857Z,72.70
2019-03-19T01:50:13.271Z,72.50
2019-03-19T01:52:41.772Z,72.40
2019-03-19T01:55:12.330Z,72.10
2019-03-19T01:57:40.828Z,71.90
2019-03-19T02:00:11.616Z,72.10
2019-03-19T02:02:40.247Z,72.10
2019-03-19T02:05:08.788Z,72.00
2019-03-19T02:07:37.184Z,72.10
2019-03-19T02:10:08.744Z,72.20
2019-03-19T02:12:37.415Z,72.40
2019-03-19T02:15:11.053Z,72.60
2019-03-19T02:17:39.744Z,72.40
2019-03-19T02:20:11.088Z,72.50
2019-03-19T02:22:40.552Z,72.70
2019-03-19T02:25:12.037Z,72.60
2019-03-19T02:27:41.216Z,72.60
2019-03-19T02:30:12.321Z,72.40
2019-03-19T02:32:41.193Z,72.20
2019-03-19T02:35:10.083Z,72.50
2019-03-19T02:37:39.377Z,72.60
2019-03-19T02:40:12.529Z,72.60
2019-03-19T02:42:41.567Z,72.50
2019-03-19T02:45:13.995Z,72.40
2019-03-19T02:47:43.529Z,72.50
2019-03-19T02:50:16.884Z,72.40
2019-03-19T02:52:45.828Z,72.20
2019-03-19T02:55:14.262Z,72.20
2019-03-19T02:57:43.056Z,72.00
2019-03-19T03:00:16.221Z,71.90
2019-03-19T03:02:44.722Z,71.70
2019-03-19T03:05:15.469Z,71.50
2019-03-19T03:07:43.894Z,71.50
2019-03-19T03:10:13.273Z,71.50
2019-03-19T03:12:41.718Z,71.40
2019-03-19T03:15:11.713Z,71.40
2019-03-19T03:17:40.145Z,71.20
2019-03-19T03:20:14.636Z,71.00
2019-03-19T03:22:43.128Z,71.30
2019-03-19T03:25:13.902Z,71.30
2019-03-19T03:27:42.309Z,71.10
2019-03-19T03:30:15.331Z,71.50
2019-03-19T03:32:43.753Z,71.40
2019-03-19T03:35:12.348Z,71.60
2019-03-19T03:37:40.863Z,71.40
2019-03-19T03:40:16.301Z,71.60
2019-03-19T03:42:46.189Z,71.90
2019-03-19T03:45:16.055Z,71.70
2019-03-19T03:47:44.613Z,71.70
2019-03-19T03:50:14.367Z,71.80
2019-03-19T03:52:42.991Z,71.70
2019-03-19T03:55:13.764Z,71.50
2019-03-19T03:57:42.458Z,71.50
2019-03-19T04:00:20.977Z,71.70
2019-03-19T04:02:50.201Z,71.80
2019-03-19T04:05:18.862Z,72.10
2019-03-19T04:07:47.393Z,72.20
2019-03-19T04:10:17.771Z,72.10
2019-03-19T04:12:46.183Z,72.20
2019-03-19T04:15:18.289Z,72.30
2019-03-19T04:17:46.808Z,72.40
2019-03-19T04:20:18.669Z,72.40
2019-03-19T04:22:47.676Z,72.70
2019-03-19T04:25:16.238Z,72.80
2019-03-19T04:27:45.849Z,72.90
2019-03-19T04:30:18.399Z,72.90
2019-03-19T04:32:46.855Z,73.00
2019-03-19T04:35:15.348Z,73.10
2019-03-19T04:37:43.832Z,72.90
2019-03-19T04:40:16.176Z,73.00
2019-03-19T04:42:46.102Z,73.10
2019-03-19T04:45:17.382Z,73.20
2019-03-19T04:47:47.584Z,73.30
2019-03-19T04:50:17.876Z,73.20
2019-03-19T04:52:47.805Z,73.30
2019-03-19T04:55:18.660Z,73.20
2019-03-19T04:57:48.511Z,73.10
2019-03-19T05:00:19.366Z,73.10
2019-03-19T05:02:50.347Z,73.10
2019-03-19T05:05:20.000Z,73.40
2019-03-19T05:07:49.412Z,73.60
2019-03-19T05:10:20.578Z,73.60
2019-03-19T05:12:52.591Z,73.50
2019-03-19T05:15:24.739Z,73.40
2019-03-19T05:17:57.641Z,73.30
2019-03-19T05:20:27.630Z,73.10
2019-03-19T05:22:57.351Z,73.20
2019-03-19T05:25:27.295Z,73.30
2019-03-19T05:27:57.872Z,73.30
2019-03-19T05:30:28.231Z,73.30
2019-03-19T05:32:58.110Z,73.40
2019-03-19T05:35:28.585Z,73.50
2019-03-19T05:37:58.084Z,73.40
2019-03-19T05:40:29.167Z,73.60
2019-03-19T05:42:59.614Z,73.40
2019-03-19T05:45:29.154Z,73.30
2019-03-19T05:47:59.508Z,73.20
2019-03-19T05:50:30.468Z,73.40
2019-03-19T05:53:02.857Z,73.60
2019-03-19T05:55:33.819Z,73.40
2019-03-19T05:58:03.748Z,73.30
2019-03-19T06:00:36.208Z,73.30
2019-03-19T06:03:06.642Z,73.40
2019-03-19T06:05:37.352Z,73.20
2019-03-19T06:08:07.176Z,73.40
2019-03-19T06:10:38.086Z,73.60
2019-03-19T06:13:07.885Z,73.60
2019-03-19T06:15:39.122Z,73.80
2019-03-19T06:18:10.983Z,74.20
2019-03-19T06:20:40.880Z,74.20
2019-03-19T06:23:10.634Z,74.10
2019-03-19T06:25:40.447Z,74.10
2019-03-19T06:28:10.744Z,74.00
2019-03-19T06:30:40.341Z,74.50
2019-03-19T06:33:11.867Z,74.60
2019-03-19T06:35:43.082Z,74.70
2019-03-19T06:38:13.006Z,74.60
2019-03-19T06:40:44.534Z,74.50
2019-03-19T06:43:16.501Z,74.60
2019-03-19T06:45:46.453Z,74.60
2019-03-19T06:48:16.353Z,74.60
2019-03-19T06:50:46.276Z,74.60
2019-03-19T06:53:17.026Z,74.60
2019-03-19T06:55:46.895Z,74.50
2019-03-19T06:58:17.099Z,74.50
2019-03-19T07:00:49.719Z,74.30
2019-03-19T07:03:22.173Z,74.30
2019-03-19T07:05:52.098Z,73.90
2019-03-19T07:08:21.949Z,73.70
2019-03-19T07:10:52.264Z,73.80
2019-03-19T07:13:22.152Z,73.90
2019-03-19T07:15:52.158Z,74.10
2019-03-19T07:18:22.552Z,74.00
2019-03-19T07:20:52.281Z,73.80
2019-03-19T07:23:22.659Z,73.50
2019-03-19T07:25:55.744Z,73.40
2019-03-19T07:28:26.925Z,73.00
2019-03-19T07:30:56.676Z,72.50
2019-03-19T07:33:27.417Z,72.40
2019-03-19T07:35:57.465Z,72.40
2019-03-19T07:38:27.525Z,72.00
2019-03-19T07:40:58.426Z,72.10
2019-03-19T07:43:28.294Z,72.10
2019-03-19T07:45:59.816Z,71.90
2019-03-19T07:48:32.152Z,70.80
2019-03-19T07:51:09.933Z,70.40
2019-03-19T07:53:44.433Z,70.60
2019-03-19T07:56:20.017Z,70.30
2019-03-19T07:58:52.896Z,70.10
2019-03-19T08:01:25.725Z,70.30
2019-03-19T08:04:05.007Z,69.80
2019-03-19T08:06:35.349Z,69.90
2019-03-19T08:09:07.985Z,69.40
2019-03-19T08:11:38.048Z,69.10
2019-03-19T08:14:07.902Z,68.90
2019-03-19T08:16:38.422Z,68.90
2019-03-19T08:19:08.951Z,69.00
2019-03-19T08:21:47.776Z,68.90
2019-03-19T08:24:18.106Z,68.30
2019-03-19T08:26:51.467Z,68.00
2019-03-19T08:29:21.293Z,67.80
2019-03-19T08:31:52.539Z,67.10
2019-03-19T08:34:22.749Z,66.60
2019-03-19T08:37:03.592Z,67.20
2019-03-19T08:39:37.876Z,66.80
2019-03-19T08:42:08.514Z,66.80
2019-03-19T08:44:39.169Z,66.20
2019-03-19T08:47:09.957Z,65.90
2019-03-19T08:49:39.764Z,65.60
2019-03-19T08:52:09.583Z,65.40
2019-03-19T08:54:39.198Z,64.50
2019-03-19T08:57:09.909Z,63.90
2019-03-19T08:59:39.711Z,63.40
2019-03-19T09:02:10.073Z,63.00
2019-03-19T09:04:41.091Z,61.20
2019-03-19T09:07:11.574Z,60.90
2019-03-19T09:09:41.184Z,60.70
2019-03-19T09:12:12.306Z,60.10
2019-03-19T09:14:42.345Z,59.80
2019-03-19T09:17:12.720Z,59.00
2019-03-19T09:19:44.674Z,58.20
2019-03-19T09:22:16.141Z,58.00
2019-03-19T09:24:46.005Z,56.30
2019-03-19T09:27:16.214Z,55.50
2019-03-19T09:29:48.012Z,55.80
2019-03-19T09:32:18.931Z,54.80
2019-03-19T09:34:49.063Z,54.30
2019-03-19T09:37:18.837Z,53.30
2019-03-19T09:39:50.467Z,53.40
2019-03-19T09:42:21.648Z,52.40
2019-03-19T09:44:58.492Z,51.70
2019-03-19T09:47:23.745Z,50.00
2019-03-19T09:49:56.187Z,49.70
2019-03-19T09:52:27.184Z,49.40
2019-03-19T09:54:57.528Z,47.60
2019-03-19T09:57:27.729Z,45.40
2019-03-19T09:59:57.950Z,44.20
2019-03-19T10:02:28.149Z,44.00
2019-03-19T10:04:58.648Z,43.50
2019-03-19T10:07:29.245Z,43.10
2019-03-19T10:10:00.484Z,43.20
2019-03-19T10:12:31.681Z,42.60
2019-03-19T10:15:03.042Z,42.10
2019-03-19T10:17:37.614Z,41.70
2019-03-19T10:20:14.116Z,41.50
2019-03-19T10:22:46.141Z,40.50
2019-03-19T10:25:17.349Z,39.70
2019-03-19T10:27:47.130Z,39.80
2019-03-19T10:30:26.758Z,39.20
2019-03-19T10:32:57.626Z,40.20
2019-03-19T10:35:28.207Z,40.40
2019-03-19T10:37:59.118Z,40.60
2019-03-19T10:40:29.194Z,40.30
2019-03-19T10:43:00.712Z,40.00
2019-03-19T10:45:31.071Z,39.20
2019-03-19T10:48:01.666Z,39.40
2019-03-19T10:50:32.767Z,39.80
2019-03-19T10:53:02.489Z,40.00
2019-03-19T10:55:32.380Z,40.30
2019-03-19T10:58:10.633Z,40.70
2019-03-19T11:00:36.646Z,40.60
2019-03-19T11:03:09.031Z,41.40
2019-03-19T11:05:40.286Z,42.70
2019-03-19T11:08:10.213Z,43.00
2019-03-19T11:10:41.397Z,43.10
2019-03-19T11:13:11.277Z,42.20
2019-03-19T11:15:41.619Z,41.60
2019-03-19T11:18:11.975Z,40.80
2019-03-19T11:20:42.137Z,40.90
2019-03-19T11:23:11.845Z,41.30
2019-03-19T11:25:53.953Z,41.50
2019-03-19T11:28:18.417Z,42.10
2019-03-19T11:30:47.285Z,40.60
2019-03-19T11:33:15.805Z,40.60
2019-03-19T11:35:45.696Z,40.10
2019-03-19T11:38:14.266Z,40.50
2019-03-19T11:40:42.686Z,39.70
2019-03-19T11:43:11.222Z,39.60
2019-03-19T11:45:41.108Z,39.90
2019-03-19T11:48:09.783Z,39.90
2019-03-19T11:50:38.219Z,40.40
2019-03-19T11:53:06.684Z,40.10
2019-03-19T11:55:36.014Z,40.20
2019-03-19T11:58:04.564Z,40.10
2019-03-19T12:00:37.458Z,40.60
2019-03-19T12:03:14.824Z,40.90
2019-03-19T12:05:36.948Z,40.90
2019-03-19T12:08:06.240Z,41.10
2019-03-19T12:10:35.002Z,40.20
2019-03-19T12:13:03.752Z,40.10
2019-03-19T12:15:32.174Z,40.00
2019-03-19T12:18:00.881Z,39.90
2019-03-19T12:20:31.529Z,40.10
2019-03-19T12:23:00.018Z,40.10
2019-03-19T12:25:31.058Z,40.20
2019-03-19T12:27:59.405Z,40.10
2019-03-19T12:30:27.826Z,39.80
2019-03-19T12:32:56.256Z,40.20
2019-03-19T12:35:24.997Z,40.40
2019-03-19T12:37:53.709Z,40.40
2019-03-19T12:40:23.256Z,39.60
2019-03-19T12:42:51.996Z,40.60
2019-03-19T12:45:21.547Z,42.00
2019-03-19T12:47:50.054Z,41.10
2019-03-19T12:50:20.910Z,40.70
2019-03-19T12:52:49.534Z,41.40
2019-03-19T12:55:18.055Z,41.40
2019-03-19T12:57:46.808Z,40.90
2019-03-19T13:00:16.965Z,40.90
2019-03-19T13:02:45.542Z,40.00
2019-03-19T13:05:14.841Z,40.40
2019-03-19T13:07:43.260Z,40.40
2019-03-19T13:10:15.152Z,40.60
2019-03-19T13:12:43.956Z,41.10
2019-03-19T13:15:14.261Z,40.60
2019-03-19T13:17:42.934Z,40.10
2019-03-19T13:20:17.393Z,40.70
2019-03-19T13:22:45.941Z,40.50
2019-03-19T13:25:24.385Z,40.20
2019-03-19T13:27:53.312Z,40.20
2019-03-19T13:30:27.105Z,40.20
2019-03-19T13:32:55.821Z,40.00
2019-03-19T13:35:24.339Z,39.60
2019-03-19T13:37:53.344Z,39.90
2019-03-19T13:40:22.047Z,39.70
2019-03-19T13:42:50.536Z,39.60
2019-03-19T13:45:22.731Z,39.50
2019-03-19T13:47:51.201Z,39.30
2019-03-19T13:50:20.744Z,39.20
2019-03-19T13:52:49.168Z,39.30
2019-03-19T13:55:19.238Z,39.50
2019-03-19T13:57:47.898Z,38.90
2019-03-19T14:00:18.450Z,39.90
2019-03-19T14:02:47.181Z,39.20
2019-03-19T14:05:16.032Z,39.50
2019-03-19T14:07:44.587Z,39.40
2019-03-19T14:10:16.952Z,39.70
2019-03-19T14:12:45.333Z,39.90
2019-03-19T14:15:15.562Z,39.10
2019-03-19T14:17:44.017Z,39.20
2019-03-19T14:20:16.381Z,39.70
2019-03-19T14:22:45.462Z,39.70
2019-03-19T14:25:15.261Z,38.80
2019-03-19T14:27:44.229Z,38.40
2019-03-19T14:30:20.887Z,38.30
2019-03-19T14:32:49.547Z,38.50
2019-03-19T14:35:17.983Z,38.30
2019-03-19T14:37:46.911Z,38.40
2019-03-19T14:40:20.241Z,38.70
2019-03-19T14:42:49.136Z,38.00
2019-03-19T14:45:18.337Z,37.80
2019-03-19T14:47:46.828Z,37.10
2019-03-19T14:50:24.393Z,37.20
2019-03-19T14:52:53.102Z,37.50
2019-03-19T14:55:21.893Z,36.90
2019-03-19T14:57:51.017Z,36.90
2019-03-19T15:00:20.901Z,35.80
2019-03-19T15:02:49.558Z,35.90
2019-03-19T15:05:18.231Z,36.30
2019-03-19T15:07:47.311Z,37.10
2019-03-19T15:10:22.477Z,37.40
2019-03-19T15:12:51.219Z,37.90
2019-03-19T15:15:23.004Z,37.10
2019-03-19T15:17:52.420Z,35.90
2019-03-19T15:20:23.593Z,35.40
2019-03-19T15:22:52.289Z,35.10
2019-03-19T15:25:20.812Z,34.90
2019-03-19T15:27:49.294Z,35.20
2019-03-19T15:30:18.697Z,35.50
2019-03-19T15:32:47.276Z,34.90
2019-03-19T15:35:15.783Z,35.50
2019-03-19T15:37:44.185Z,35.00
2019-03-19T15:40:16.923Z,34.90
2019-03-19T15:42:45.366Z,35.30
2019-03-19T15:45:18.105Z,35.60
2019-03-19T15:47:46.569Z,35.00
2019-03-19T15:50:16.066Z,35.20
2019-03-19T15:52:44.692Z,36.80
2019-03-19T15:55:14.819Z,37.30
2019-03-19T15:57:43.367Z,37.20
2019-03-19T16:00:16.476Z,36.40
2019-03-19T16:02:45.465Z,37.40
2019-03-19T16:05:14.436Z,36.10
2019-03-19T16:07:43.113Z,34.70
2019-03-19T16:10:15.653Z,35.40
2019-03-19T16:12:44.067Z,35.00
2019-03-19T16:15:17.278Z,35.30
2019-03-19T16:17:45.926Z,36.50
2019-03-19T16:20:16.489Z,37.10
2019-03-19T16:22:45.258Z,36.30
2019-03-19T16:25:14.068Z,35.90
2019-03-19T16:27:42.743Z,36.00
2019-03-19T16:30:20.688Z,36.30
2019-03-19T16:32:49.471Z,36.70
2019-03-19T16:35:18.124Z,37.10
2019-03-19T16:37:47.089Z,37.00
2019-03-19T16:40:20.637Z,36.90
2019-03-19T16:42:49.121Z,37.30
2019-03-19T16:45:18.490Z,37.80
2019-03-19T16:47:47.338Z,40.40
2019-03-19T16:50:18.805Z,41.10
2019-03-19T16:52:47.311Z,41.40
2019-03-19T16:55:16.544Z,41.30
2019-03-19T16:57:45.064Z,41.20
2019-03-19T17:00:16.254Z,40.80
2019-03-19T17:02:44.950Z,42.00
2019-03-19T17:05:14.177Z,42.60
2019-03-19T17:07:42.831Z,42.50
2019-03-19T17:10:16.473Z,43.40
2019-03-19T17:12:45.168Z,43.50
2019-03-19T17:15:17.088Z,43.80
2019-03-19T17:17:45.957Z,43.50
2019-03-19T17:20:15.485Z,43.80
2019-03-19T17:22:44.001Z,44.10
2019-03-19T17:25:14.905Z,44.20
2019-03-19T17:27:43.538Z,44.30
2019-03-19T17:30:29.710Z,43.70
2019-03-19T17:32:58.287Z,42.60
2019-03-19T17:35:26.969Z,43.90
2019-03-19T17:37:55.617Z,43.40
2019-03-19T17:40:24.035Z,43.00
2019-03-19T17:42:52.620Z,42.80
2019-03-19T17:45:21.100Z,42.70
2019-03-19T17:47:49.500Z,42.90
2019-03-19T17:50:21.904Z,43.70
2019-03-19T17:52:52.027Z,43.50
2019-03-19T17:55:20.656Z,43.40
2019-03-19T17:57:49.124Z,44.70
2019-03-19T18:00:24.717Z,44.60
2019-03-19T18:02:53.185Z,44.50
2019-03-19T18:05:21.850Z,45.10
2019-03-19T18:07:50.336Z,45.50
2019-03-19T18:10:18.893Z,46.30
2019-03-19T18:12:47.264Z,47.10
2019-03-19T18:15:19.440Z,47.20
2019-03-19T18:17:47.908Z,47.40
2019-03-19T18:20:17.045Z,48.10
2019-03-19T18:22:45.540Z,48.40
2019-03-19T18:25:18.144Z,48.60
2019-03-19T18:27:47.137Z,48.90
2019-03-19T18:30:17.716Z,49.00
2019-03-19T18:32:47.198Z,49.10
2019-03-19T18:35:15.954Z,49.60
2019-03-19T18:37:45.281Z,49.60
2019-03-19T18:40:15.685Z,49.20
2019-03-19T18:42:44.089Z,49.30
2019-03-19T18:45:14.731Z,49.30
2019-03-19T18:47:43.128Z,49.90
2019-03-19T18:50:21.469Z,50.10
2019-03-19T18:52:50.105Z,50.90
2019-03-19T18:55:18.485Z,51.20
2019-03-19T18:57:46.964Z,51.20
2019-03-19T19:00:17.657Z,51.50
2019-03-19T19:02:50.257Z,51.40
2019-03-19T19:05:17.369Z,52.00
2019-03-19T19:07:45.771Z,52.00
2019-03-19T19:10:16.078Z,52.20
2019-03-19T19:12:44.740Z,52.30
2019-03-19T19:15:18.006Z,52.50
2019-03-19T19:17:46.640Z,53.00
2019-03-19T19:20:16.076Z,53.10
2019-03-19T19:22:44.545Z,53.10
2019-03-19T19:25:22.794Z,53.70
2019-03-19T19:27:51.201Z,53.70
2019-03-19T19:30:25.867Z,53.80
2019-03-19T19:33:01.745Z,53.70
2019-03-19T19:35:24.466Z,53.80
2019-03-19T19:37:53.092Z,54.10
2019-03-19T19:40:21.557Z,54.40
2019-03-19T19:42:49.959Z,54.40
2019-03-19T19:45:19.455Z,54.90
2019-03-19T19:47:47.863Z,55.20
2019-03-19T19:50:18.523Z,55.10
2019-03-19T19:52:46.986Z,55.00
2019-03-19T19:55:15.858Z,55.70
2019-03-19T19:57:44.585Z,55.90
2019-03-19T20:00:15.380Z,56.30
2019-03-19T20:02:43.943Z,57.00
2019-03-19T20:05:13.899Z,56.50
2019-03-19T20:07:42.620Z,56.50
2019-03-19T20:10:22.152Z,56.40
2019-03-19T20:12:50.610Z,56.10
2019-03-19T20:15:19.151Z,56.50
2019-03-19T20:17:48.951Z,56.90
2019-03-19T20:20:29.778Z,56.90
2019-03-19T20:22:58.462Z,56.90
2019-03-19T20:25:27.104Z,57.10
2019-03-19T20:27:55.760Z,57.30
2019-03-19T20:30:29.322Z,57.70
2019-03-19T20:32:58.045Z,57.90
2019-03-19T20:35:26.468Z,57.90
2019-03-19T20:37:55.172Z,58.10
2019-03-19T20:40:23.588Z,58.40
2019-03-19T20:42:51.985Z,58.60
2019-03-19T20:45:28.795Z,58.60
2019-03-19T20:47:57.198Z,58.30
2019-03-19T20:50:30.052Z,58.50
2019-03-19T20:52:59.793Z,58.80
2019-03-19T20:55:28.197Z,59.40
2019-03-19T20:57:56.590Z,59.70
2019-03-19T21:00:25.158Z,59.70
2019-03-19T21:02:53.563Z,59.70
2019-03-19T21:05:22.036Z,60.10
2019-03-19T21:07:50.460Z,60.10
2019-03-19T21:10:20.259Z,60.20
2019-03-19T21:12:48.736Z,60.30
2019-03-19T21:15:31.678Z,60.70
2019-03-19T21:18:00.159Z,60.90
2019-03-19T21:20:28.562Z,61.20
2019-03-19T21:22:56.986Z,61.10
2019-03-19T21:25:25.393Z,61.60
2019-03-19T21:27:54.024Z,61.50
2019-03-19T21:30:23.378Z,61.60
2019-03-19T21:32:51.835Z,61.70
2019-03-19T21:35:22.443Z,61.70
2019-03-19T21:37:51.182Z,61.80
2019-03-19T21:40:19.767Z,62.10
2019-03-19T21:42:48.388Z,62.20
2019-03-19T21:45:18.059Z,62.10
2019-03-19T21:47:46.725Z,61.90
2019-03-19T21:50:20.346Z,61.80
2019-03-19T21:52:48.745Z,61.80
2019-03-19T21:55:17.403Z,61.60
2019-03-19T21:57:45.857Z,61.70
2019-03-19T22:00:19.850Z,62.00
2019-03-19T22:02:48.480Z,61.90
2019-03-19T22:05:16.867Z,61.90
2019-03-19T22:07:45.359Z,62.50
2019-03-19T22:10:15.181Z,62.60
2019-03-19T22:12:43.638Z,62.60
2019-03-19T22:15:14.594Z,62.50
2019-03-19T22:17:43.019Z,62.90
2019-03-19T22:20:11.492Z,62.80
2019-03-19T22:22:40.400Z,63.30
2019-03-19T22:25:10.996Z,63.10
2019-03-19T22:27:39.432Z,63.40
2019-03-19T22:30:10.801Z,63.40
2019-03-19T22:32:39.653Z,63.60
2019-03-19T22:35:08.620Z,64.00
2019-03-19T22:37:37.294Z,63.90
2019-03-19T22:40:11.686Z,64.00
2019-03-19T22:42:40.085Z,64.10
2019-03-19T22:45:11.168Z,64.20
2019-03-19T22:47:39.823Z,64.30
2019-03-19T22:50:18.596Z,64.50
2019-03-19T22:52:47.553Z,64.50
2019-03-19T22:55:16.450Z,64.60
2019-03-19T22:57:45.358Z,64.80
2019-03-19T23:00:38.092Z,64.80
2019-03-19T23:03:07.436Z,64.70
2019-03-19T23:05:36.430Z,64.60
2019-03-19T23:08:05.061Z,64.80
2019-03-19T23:10:33.719Z,64.60
2019-03-19T23:13:02.140Z,64.60
2019-03-19T23:15:30.904Z,64.70
2019-03-19T23:17:59.321Z,64.60
2019-03-19T23:20:28.201Z,64.60
2019-03-19T23:22:56.856Z,64.70
2019-03-19T23:25:25.385Z,64.80
2019-03-19T23:27:53.772Z,65.10
2019-03-19T23:30:23.498Z,65.10
2019-03-19T23:32:51.982Z,65.30
2019-03-19T23:35:20.390Z,65.30
2019-03-19T23:37:48.780Z,65.30
2019-03-19T23:40:18.851Z,65.40
2019-03-19T23:42:47.244Z,65.40
2019-03-19T23:45:15.718Z,65.60
2019-03-19T23:47:44.220Z,65.50
2019-03-19T23:50:17.460Z,65.60
2019-03-19T23:52:46.083Z,65.50
2019-03-19T23:55:14.578Z,65.50
2019-03-19T23:57:42.991Z,65.60
